createdAt,value
2022-08-17T00:00:49.340Z,82.45
2022-08-17T00:01:52.649Z,82.34
2022-08-17T00:02:42.862Z,82.24
2022-08-17T00:03:40.218Z,82.04
2022-08-17T00:04:40.156Z,81.64
2022-08-17T00:05:40.161Z,81.34
2022-08-17T00:06:40.127Z,81.44
2022-08-17T00:07:40.151Z,81.64
2022-08-17T00:08:40.146Z,82.04
2022-08-17T00:09:40.109Z,82.45
2022-08-17T00:10:40.082Z,82.34
2022-08-17T00:11:40.078Z,82.45
2022-08-17T00:12:42.578Z,82.34
2022-08-17T00:13:40.064Z,82.24
2022-08-17T00:14:40.621Z,81.90
2022-08-17T00:15:40.025Z,81.40
2022-08-17T00:16:55.376Z,81.20
2022-08-17T00:17:40.018Z,80.96
2022-08-17T00:19:02.200Z,80.76
2022-08-17T00:19:39.968Z,80.46
2022-08-17T00:20:39.963Z,80.06
2022-08-17T00:21:59.952Z,79.72
2022-08-17T00:22:40.029Z,79.82
2022-08-17T00:23:39.930Z,79.96
2022-08-17T00:24:39.926Z,80.26
2022-08-17T00:25:40.681Z,80.56
2022-08-17T00:26:44.576Z,80.90
2022-08-17T00:27:39.892Z,81.40
2022-08-17T00:28:39.876Z,81.64
2022-08-17T00:29:39.849Z,81.94
2022-08-17T00:30:48.495Z,82.14
2022-08-17T00:31:39.837Z,82.38
2022-08-17T00:33:14.624Z,82.38
2022-08-17T00:33:39.806Z,82.48
2022-08-17T00:34:39.808Z,82.98
2022-08-17T00:35:39.761Z,83.29
2022-08-17T00:36:39.742Z,83.93
2022-08-17T00:37:39.762Z,84.33
2022-08-17T00:38:39.715Z,84.53
2022-08-17T00:39:39.756Z,84.43
2022-08-17T00:40:44.229Z,84.63
2022-08-17T00:41:42.269Z,84.63
2022-08-17T00:42:39.676Z,84.53
2022-08-17T00:43:39.655Z,84.33
2022-08-17T00:44:39.643Z,83.99
2022-08-17T00:45:39.648Z,83.69
2022-08-17T00:46:39.612Z,83.39
2022-08-17T00:47:39.599Z,83.39
2022-08-17T00:48:39.584Z,83.53
2022-08-17T00:49:39.576Z,83.33
2022-08-17T00:50:39.596Z,83.33
2022-08-17T00:51:39.552Z,83.43
2022-08-17T00:52:39.525Z,83.73
2022-08-17T00:53:39.525Z,83.73
2022-08-17T00:54:41.809Z,83.63
2022-08-17T00:55:39.525Z,83.63
2022-08-17T00:56:39.498Z,83.93
2022-08-17T00:57:39.503Z,84.03
2022-08-17T00:58:39.521Z,83.93
2022-08-17T00:59:39.470Z,83.83
2022-08-17T01:00:39.497Z,83.53
2022-08-17T01:01:39.494Z,83.43
2022-08-17T01:02:41.561Z,83.29
2022-08-17T01:03:39.382Z,82.98
2022-08-17T01:04:39.378Z,82.78
2022-08-17T01:05:42.145Z,82.89
2022-08-17T01:06:39.350Z,82.89
2022-08-17T01:07:39.333Z,82.98
2022-08-17T01:08:39.312Z,82.98
2022-08-17T01:09:39.337Z,83.03
2022-08-17T01:11:00.335Z,83.03
2022-08-17T01:11:39.305Z,83.03
2022-08-17T01:12:39.277Z,82.92
2022-08-17T01:13:41.255Z,82.92
2022-08-17T01:14:39.260Z,82.82
2022-08-17T01:15:39.221Z,82.72
2022-08-17T01:16:39.209Z,82.72
2022-08-17T01:17:39.224Z,82.68
2022-08-17T01:18:39.177Z,82.58
2022-08-17T01:19:39.205Z,82.72
2022-08-17T01:20:48.060Z,82.82
2022-08-17T01:21:39.159Z,82.92
2022-08-17T01:22:39.159Z,83.03
2022-08-17T01:23:39.118Z,83.03
2022-08-17T01:24:39.139Z,83.03
2022-08-17T01:25:39.087Z,82.92
2022-08-17T01:26:39.086Z,82.78
2022-08-17T01:27:39.058Z,82.68
2022-08-17T01:28:54.974Z,82.58
2022-08-17T01:29:39.062Z,82.18
2022-08-17T01:30:58.019Z,82.08
2022-08-17T01:31:39.037Z,81.74
2022-08-17T01:32:39.009Z,81.74
2022-08-17T01:33:38.989Z,81.64
2022-08-17T01:34:43.353Z,81.64
2022-08-17T01:35:38.986Z,81.64
2022-08-17T01:36:38.942Z,81.58
2022-08-17T01:37:38.931Z,81.58
2022-08-17T01:38:38.912Z,81.38
2022-08-17T01:39:38.951Z,81.38
2022-08-17T01:40:38.911Z,81.78
2022-08-17T01:41:38.895Z,82.08
2022-08-17T01:42:38.875Z,82.22
2022-08-17T01:43:38.846Z,82.32
2022-08-17T01:44:38.836Z,82.42
2022-08-17T01:45:38.847Z,82.32
2022-08-17T01:46:38.845Z,82.32
2022-08-17T01:47:38.815Z,82.18
2022-08-17T01:48:38.781Z,82.08
2022-08-17T01:49:38.777Z,81.78
2022-08-17T01:50:38.810Z,81.48
2022-08-17T01:51:38.748Z,81.18
2022-08-17T01:52:38.742Z,80.88
2022-08-17T01:53:38.720Z,80.88
2022-08-17T01:54:38.690Z,80.98
2022-08-17T01:55:38.732Z,81.07
2022-08-17T01:56:38.667Z,81.27
2022-08-17T01:57:38.665Z,81.38
2022-08-17T01:58:38.680Z,81.38
2022-08-17T01:59:38.659Z,81.27
2022-08-17T02:00:59.654Z,81.24
2022-08-17T02:01:39.670Z,81.04
2022-08-17T02:02:38.627Z,80.83
2022-08-17T02:03:38.588Z,80.63
2022-08-17T02:04:38.568Z,80.43
2022-08-17T02:05:38.562Z,80.24
2022-08-17T02:06:52.590Z,79.99
2022-08-17T02:07:59.622Z,79.99
2022-08-17T02:08:39.482Z,79.80
2022-08-17T02:09:38.539Z,79.69
2022-08-17T02:10:39.217Z,79.69
2022-08-17T02:11:38.526Z,79.69
2022-08-17T02:12:39.885Z,79.49
2022-08-17T02:13:38.470Z,79.39
2022-08-17T02:14:38.443Z,79.49
2022-08-17T02:15:38.413Z,79.49
2022-08-17T02:16:38.446Z,79.90
2022-08-17T02:17:38.462Z,80.24
2022-08-17T02:18:38.439Z,80.54
2022-08-17T02:19:38.403Z,80.94
2022-08-17T02:20:42.379Z,80.77
2022-08-17T02:21:38.349Z,81.07
2022-08-17T02:22:38.352Z,81.72
2022-08-17T02:23:38.319Z,82.12
2022-08-17T02:25:00.689Z,82.02
2022-08-17T02:25:38.297Z,82.32
2022-08-17T02:26:38.270Z,82.42
2022-08-17T02:27:38.269Z,82.62
2022-08-17T02:28:38.281Z,82.42
2022-08-17T02:29:38.242Z,82.22
2022-08-17T02:31:02.741Z,82.12
2022-08-17T02:31:38.210Z,82.22
2022-08-17T02:32:38.189Z,82.42
2022-08-17T02:33:42.677Z,82.42
2022-08-17T02:34:38.192Z,82.56
2022-08-17T02:35:38.164Z,82.66
2022-08-17T02:36:38.151Z,82.97
2022-08-17T02:37:38.167Z,83.12
2022-08-17T02:38:38.115Z,83.03
2022-08-17T02:39:38.740Z,82.72
2022-08-17T02:40:38.104Z,82.52
2022-08-17T02:41:38.087Z,82.62
2022-08-17T02:42:38.061Z,82.08
2022-08-17T02:43:38.077Z,81.78
2022-08-17T02:44:39.852Z,81.48
2022-08-17T02:45:38.041Z,81.04
2022-08-17T02:46:38.035Z,80.74
2022-08-17T02:47:38.018Z,80.33
2022-08-17T02:48:37.976Z,79.93
2022-08-17T02:49:37.978Z,79.73
2022-08-17T02:50:37.965Z,79.63
2022-08-17T02:51:37.971Z,79.53
2022-08-17T02:52:43.055Z,79.43
2022-08-17T02:53:37.945Z,79.23
2022-08-17T02:54:41.608Z,79.23
2022-08-17T02:55:37.887Z,79.23
2022-08-17T02:56:37.899Z,79.33
2022-08-17T02:57:37.873Z,79.23
2022-08-17T02:58:37.877Z,79.57
2022-08-17T02:59:37.856Z,79.87
2022-08-17T03:00:38.493Z,79.97
2022-08-17T03:01:37.881Z,80.07
2022-08-17T03:02:37.937Z,80.27
2022-08-17T03:03:37.839Z,80.21
2022-08-17T03:04:37.769Z,80.21
2022-08-17T03:05:37.761Z,80.51
2022-08-17T03:06:37.745Z,81.05
2022-08-17T03:07:37.794Z,81.32
2022-08-17T03:08:37.729Z,81.21
2022-08-17T03:09:37.702Z,81.12
2022-08-17T03:10:37.688Z,81.12
2022-08-17T03:11:37.718Z,81.46
2022-08-17T03:12:37.659Z,81.76
2022-08-17T03:13:37.708Z,82.06
2022-08-17T03:14:41.234Z,82.12
2022-08-17T03:15:37.619Z,82.02
2022-08-17T03:16:38.472Z,82.02
2022-08-17T03:17:37.603Z,81.82
2022-08-17T03:18:37.617Z,81.92
2022-08-17T03:19:37.572Z,81.92
2022-08-17T03:20:37.566Z,81.82
2022-08-17T03:21:37.571Z,81.58
2022-08-17T03:22:38.288Z,81.38
2022-08-17T03:23:37.540Z,81.18
2022-08-17T03:24:37.541Z,80.98
2022-08-17T03:25:37.487Z,80.63
2022-08-17T03:26:37.486Z,80.43
2022-08-17T03:27:37.507Z,80.13
2022-08-17T03:28:37.480Z,80.04
2022-08-17T03:29:37.456Z,80.13
2022-08-17T03:30:38.131Z,80.04
2022-08-17T03:31:38.131Z,80.04
2022-08-17T03:32:37.422Z,80.13
2022-08-17T03:33:37.989Z,80.13
2022-08-17T03:34:37.386Z,80.13
2022-08-17T03:35:37.352Z,80.33
2022-08-17T03:36:37.370Z,80.43
2022-08-17T03:37:37.386Z,80.33
2022-08-17T03:38:39.472Z,80.43
2022-08-17T03:39:38.176Z,80.43
2022-08-17T03:40:56.436Z,80.68
2022-08-17T03:41:37.289Z,80.88
2022-08-17T03:42:37.255Z,81.07
2022-08-17T03:43:37.244Z,81.27
2022-08-17T03:44:37.254Z,81.38
2022-08-17T03:45:37.337Z,81.58
2022-08-17T03:46:37.207Z,81.58
2022-08-17T03:47:37.197Z,81.48
2022-08-17T03:48:37.187Z,81.48
2022-08-17T03:49:37.221Z,81.38
2022-08-17T03:50:37.171Z,81.48
2022-08-17T03:51:38.085Z,81.48
2022-08-17T03:52:37.145Z,81.82
2022-08-17T03:53:37.116Z,82.02
2022-08-17T03:54:37.119Z,82.02
2022-08-17T03:55:37.082Z,82.12
2022-08-17T03:56:37.997Z,82.12
2022-08-17T03:57:37.061Z,82.22
2022-08-17T03:58:37.045Z,82.32
2022-08-17T03:59:37.058Z,82.22
2022-08-17T04:00:39.727Z,82.08
2022-08-17T04:01:37.075Z,81.98
2022-08-17T04:02:37.007Z,81.78
2022-08-17T04:03:36.975Z,81.68
2022-08-17T04:04:37.013Z,81.58
2022-08-17T04:05:36.979Z,81.24
2022-08-17T04:06:36.943Z,81.14
2022-08-17T04:07:36.973Z,81.14
2022-08-17T04:08:36.937Z,81.04
2022-08-17T04:09:36.949Z,81.04
2022-08-17T04:10:38.365Z,80.94
2022-08-17T04:11:37.585Z,81.14
2022-08-17T04:12:36.862Z,81.27
2022-08-17T04:13:36.850Z,81.48
2022-08-17T04:14:52.281Z,81.48
2022-08-17T04:15:36.841Z,81.58
2022-08-17T04:16:36.821Z,81.68
2022-08-17T04:17:36.796Z,81.68
2022-08-17T04:18:36.828Z,81.58
2022-08-17T04:19:36.841Z,81.58
2022-08-17T04:20:36.761Z,81.58
2022-08-17T04:21:36.741Z,81.58
2022-08-17T04:22:36.735Z,81.48
2022-08-17T04:23:36.701Z,81.48
2022-08-17T04:24:36.731Z,81.38
2022-08-17T04:25:36.698Z,81.27
2022-08-17T04:26:52.981Z,81.34
2022-08-17T04:27:36.699Z,81.24
2022-08-17T04:28:36.683Z,80.94
2022-08-17T04:29:54.200Z,80.94
2022-08-17T04:30:36.658Z,81.14
2022-08-17T04:31:36.630Z,81.38
2022-08-17T04:33:02.297Z,81.68
2022-08-17T04:33:36.603Z,81.88
2022-08-17T04:34:36.599Z,82.18
2022-08-17T04:35:36.562Z,82.08
2022-08-17T04:36:36.568Z,82.08
2022-08-17T04:37:36.529Z,82.28
2022-08-17T04:38:36.543Z,81.88
2022-08-17T04:39:36.576Z,81.88
2022-08-17T04:40:36.536Z,81.84
2022-08-17T04:41:36.467Z,81.64
2022-08-17T04:42:36.471Z,81.34
2022-08-17T04:43:36.442Z,80.83
2022-08-17T04:44:37.795Z,80.63
2022-08-17T04:45:36.475Z,80.54
2022-08-17T04:46:36.454Z,80.54
2022-08-17T04:47:36.400Z,80.74
2022-08-17T04:48:37.565Z,81.04
2022-08-17T04:49:36.387Z,81.34
2022-08-17T04:50:36.386Z,81.64
2022-08-17T04:51:36.393Z,81.78
2022-08-17T04:52:43.505Z,82.08
2022-08-17T04:53:36.334Z,82.08
2022-08-17T04:54:36.297Z,82.28
2022-08-17T04:55:36.310Z,82.48
2022-08-17T04:56:36.309Z,82.38
2022-08-17T04:57:39.396Z,82.38
2022-08-17T04:58:36.262Z,82.48
2022-08-17T04:59:36.263Z,82.48
2022-08-17T05:00:37.209Z,82.68
2022-08-17T05:01:37.014Z,82.68
2022-08-17T05:02:36.239Z,82.78
2022-08-17T05:03:36.266Z,82.89
2022-08-17T05:04:36.197Z,82.58
2022-08-17T05:05:36.170Z,82.45
2022-08-17T05:06:36.230Z,82.24
2022-08-17T05:07:36.161Z,82.04
2022-08-17T05:08:36.173Z,81.74
2022-08-17T05:09:36.114Z,81.20
2022-08-17T05:10:36.111Z,80.90
2022-08-17T05:11:36.090Z,80.80
2022-08-17T05:12:36.076Z,80.60
2022-08-17T05:13:36.626Z,80.30
2022-08-17T05:14:36.074Z,80.16
2022-08-17T05:15:36.181Z,80.16
2022-08-17T05:16:36.038Z,80.06
2022-08-17T05:17:35.999Z,79.86
2022-08-17T05:18:36.631Z,79.66
2022-08-17T05:19:36.006Z,79.55
2022-08-17T05:20:35.988Z,79.55
2022-08-17T05:21:35.952Z,79.55
2022-08-17T05:22:35.934Z,79.42
2022-08-17T05:23:42.439Z,79.32
2022-08-17T05:24:42.685Z,79.42
2022-08-17T05:25:36.285Z,79.22
2022-08-17T05:26:36.411Z,79.12
2022-08-17T05:27:36.125Z,79.12
2022-08-17T05:28:35.878Z,78.92
2022-08-17T05:29:36.063Z,79.02
2022-08-17T05:30:36.634Z,78.92
2022-08-17T05:31:35.824Z,78.92
2022-08-17T05:32:38.982Z,78.81
2022-08-17T05:33:35.785Z,78.92
2022-08-17T05:34:35.779Z,79.02
2022-08-17T05:35:35.817Z,79.02
2022-08-17T05:36:42.230Z,79.02
2022-08-17T05:37:35.735Z,79.32
2022-08-17T05:38:35.724Z,79.12
2022-08-17T05:39:35.745Z,79.12
2022-08-17T05:40:35.716Z,79.22
2022-08-17T05:41:35.679Z,79.02
2022-08-17T05:42:35.692Z,78.92
2022-08-17T05:43:35.725Z,78.98
2022-08-17T05:44:35.652Z,78.88
2022-08-17T05:45:54.584Z,79.08
2022-08-17T05:46:35.631Z,79.08
2022-08-17T05:47:35.614Z,78.98
2022-08-17T05:48:40.153Z,78.88
2022-08-17T05:49:35.575Z,78.98
2022-08-17T05:50:35.584Z,79.18
2022-08-17T05:51:36.623Z,79.48
2022-08-17T05:52:35.542Z,79.78
2022-08-17T05:53:36.240Z,79.98
2022-08-17T05:54:35.579Z,79.88
2022-08-17T05:55:35.493Z,79.82
2022-08-17T05:56:35.474Z,79.98
2022-08-17T05:57:35.527Z,80.18
2022-08-17T05:58:35.476Z,80.08
2022-08-17T05:59:35.424Z,79.88
2022-08-17T06:00:36.408Z,79.68
2022-08-17T06:01:35.491Z,79.68
2022-08-17T06:02:35.447Z,79.54
2022-08-17T06:03:35.413Z,79.85
2022-08-17T06:04:36.133Z,80.35
2022-08-17T06:05:35.984Z,80.54
2022-08-17T06:06:35.359Z,80.94
2022-08-17T06:07:36.165Z,80.65
2022-08-17T06:08:35.361Z,81.35
2022-08-17T06:09:35.325Z,81.95
2022-08-17T06:10:35.296Z,81.95
2022-08-17T06:11:35.380Z,82.65
2022-08-17T06:12:35.308Z,82.55
2022-08-17T06:13:35.322Z,82.24
2022-08-17T06:14:35.258Z,82.35
2022-08-17T06:15:35.219Z,82.85
2022-08-17T06:16:35.245Z,83.85
2022-08-17T06:17:35.213Z,83.69
2022-08-17T06:18:35.262Z,83.75
2022-08-17T06:19:35.172Z,83.95
2022-08-17T06:20:35.703Z,84.39
2022-08-17T06:21:35.148Z,84.05
2022-08-17T06:22:35.143Z,83.95
2022-08-17T06:23:35.200Z,84.09
2022-08-17T06:24:35.137Z,83.99
2022-08-17T06:25:35.106Z,83.89
2022-08-17T06:26:39.685Z,84.49
2022-08-17T06:27:35.597Z,84.69
2022-08-17T06:28:35.059Z,84.69
2022-08-17T06:29:35.058Z,84.19
2022-08-17T06:30:58.676Z,84.19
2022-08-17T06:31:35.010Z,84.59
2022-08-17T06:32:35.012Z,85.30
2022-08-17T06:33:34.993Z,85.39
2022-08-17T06:34:35.006Z,85.19
2022-08-17T06:35:35.622Z,84.99
2022-08-17T06:36:34.953Z,85.10
2022-08-17T06:37:34.920Z,85.66
2022-08-17T06:38:37.355Z,85.25
2022-08-17T06:39:35.649Z,85.15
2022-08-17T06:40:34.891Z,85.15
2022-08-17T06:41:37.562Z,85.15
2022-08-17T06:43:02.293Z,84.99
2022-08-17T06:43:34.893Z,84.69
2022-08-17T06:44:43.434Z,84.89
2022-08-17T06:45:34.829Z,85.10
2022-08-17T06:46:34.841Z,85.60
2022-08-17T06:47:34.806Z,85.30
2022-08-17T06:48:34.788Z,85.80
2022-08-17T06:49:34.762Z,85.49
2022-08-17T06:50:34.758Z,85.30
2022-08-17T06:51:34.782Z,85.30
2022-08-17T06:52:45.799Z,85.39
2022-08-17T06:53:35.508Z,85.89
2022-08-17T06:54:34.725Z,85.69
2022-08-17T06:55:38.094Z,86.60
2022-08-17T06:56:54.014Z,87.20
2022-08-17T06:57:35.628Z,87.40
2022-08-17T06:58:34.673Z,88.10
2022-08-17T06:59:36.245Z,88.20
2022-08-17T07:00:34.673Z,88.50
2022-08-17T07:01:34.664Z,88.70
2022-08-17T07:02:52.122Z,88.40
2022-08-17T07:03:34.613Z,88.90
2022-08-17T07:04:34.565Z,88.80
2022-08-17T07:05:34.642Z,89.40
2022-08-17T07:06:37.965Z,89.70
2022-08-17T07:07:34.581Z,90.00
2022-08-17T07:08:36.132Z,89.70
2022-08-17T07:09:34.547Z,89.70
2022-08-17T07:10:34.503Z,89.75
2022-08-17T07:11:34.475Z,90.55
2022-08-17T07:12:34.478Z,90.95
2022-08-17T07:13:34.473Z,90.65
2022-08-17T07:14:34.461Z,90.35
2022-08-17T07:15:34.440Z,90.35
2022-08-17T07:16:34.417Z,90.15
2022-08-17T07:17:47.740Z,90.25
2022-08-17T07:18:34.406Z,90.31
2022-08-17T07:19:34.384Z,89.81
2022-08-17T07:20:34.360Z,90.31
2022-08-17T07:21:34.350Z,90.50
2022-08-17T07:22:55.329Z,90.81
2022-08-17T07:23:34.340Z,90.61
2022-08-17T07:24:34.300Z,90.61
2022-08-17T07:25:34.333Z,90.31
2022-08-17T07:26:34.299Z,90.11
2022-08-17T07:27:35.062Z,90.31
2022-08-17T07:28:34.259Z,90.55
2022-08-17T07:29:34.271Z,90.75
2022-08-17T07:30:37.193Z,91.15
2022-08-17T07:31:34.254Z,91.35
2022-08-17T07:32:34.210Z,91.55
2022-08-17T07:33:35.129Z,91.35
2022-08-17T07:34:34.702Z,91.65
2022-08-17T07:35:40.941Z,91.96
2022-08-17T07:36:34.156Z,92.25
2022-08-17T07:37:34.120Z,92.55
2022-08-17T07:38:35.782Z,93.26
2022-08-17T07:39:34.148Z,93.36
2022-08-17T07:40:34.222Z,93.00
2022-08-17T07:41:53.151Z,93.10
2022-08-17T07:42:34.434Z,93.00
2022-08-17T07:43:34.054Z,92.80
2022-08-17T07:44:34.031Z,93.35
2022-08-17T07:45:34.071Z,94.15
2022-08-17T07:46:34.093Z,94.65
2022-08-17T07:47:33.987Z,94.95
2022-08-17T07:48:34.044Z,94.75
2022-08-17T07:49:33.990Z,94.75
2022-08-17T07:50:33.957Z,94.85
2022-08-17T07:51:33.964Z,95.15
2022-08-17T07:52:50.716Z,94.95
2022-08-17T07:53:33.923Z,94.95
2022-08-17T07:54:33.930Z,94.65
2022-08-17T07:55:33.923Z,95.36
2022-08-17T07:56:34.655Z,95.65
2022-08-17T07:57:33.886Z,96.06
2022-08-17T07:58:33.870Z,96.26
2022-08-17T07:59:34.072Z,95.95
2022-08-17T08:00:34.028Z,95.95
2022-08-17T08:01:41.801Z,96.21
2022-08-17T08:02:34.013Z,96.01
2022-08-17T08:03:33.825Z,95.71
2022-08-17T08:05:50.229Z,95.41
2022-08-17T08:06:33.738Z,95.61
2022-08-17T08:07:33.733Z,95.41
2022-08-17T08:08:33.726Z,95.01
2022-08-17T08:09:33.713Z,95.45
2022-08-17T08:10:33.729Z,95.65
2022-08-17T08:11:33.681Z,95.75
2022-08-17T08:12:34.206Z,95.51
2022-08-17T08:13:33.692Z,95.31
2022-08-17T08:14:33.674Z,94.40
2022-08-17T08:15:33.633Z,93.70
2022-08-17T08:16:33.624Z,93.70
2022-08-17T08:17:33.630Z,93.70
2022-08-17T08:18:54.882Z,93.90
2022-08-17T08:19:33.607Z,94.10
2022-08-17T08:20:52.348Z,94.10
2022-08-17T08:21:33.539Z,94.20
2022-08-17T08:22:33.561Z,94.40
2022-08-17T08:23:33.533Z,94.51
2022-08-17T08:24:33.506Z,94.60
2022-08-17T08:25:33.508Z,94.71
2022-08-17T08:26:33.510Z,94.51
2022-08-17T08:27:33.473Z,94.51
2022-08-17T08:28:33.472Z,94.40
2022-08-17T08:29:33.467Z,94.00
2022-08-17T08:30:33.439Z,93.80
2022-08-17T08:31:35.848Z,94.00
2022-08-17T08:32:33.399Z,94.31
2022-08-17T08:33:33.377Z,94.10
2022-08-17T08:34:45.441Z,94.31
2022-08-17T08:35:33.402Z,94.71
2022-08-17T08:37:12.700Z,94.10
2022-08-17T08:37:37.876Z,93.70
2022-08-17T08:38:33.315Z,93.50
2022-08-17T08:39:33.351Z,93.76
2022-08-17T08:40:33.279Z,93.76
2022-08-17T08:41:33.310Z,93.76
2022-08-17T08:42:33.273Z,93.86
2022-08-17T08:43:33.244Z,94.16
2022-08-17T08:45:01.278Z,94.26
2022-08-17T08:45:33.257Z,94.31
2022-08-17T08:46:33.681Z,94.31
2022-08-17T08:47:35.473Z,94.12
2022-08-17T08:48:52.797Z,93.62
2022-08-17T08:50:02.045Z,93.01
2022-08-17T08:50:38.093Z,93.21
2022-08-17T08:51:33.185Z,93.01
2022-08-17T08:52:33.133Z,93.31
2022-08-17T08:53:33.138Z,93.41
2022-08-17T08:54:33.126Z,93.41
2022-08-17T08:55:33.139Z,93.31
2022-08-17T08:56:33.123Z,93.11
2022-08-17T08:57:34.597Z,92.81
2022-08-17T08:58:42.242Z,92.71
2022-08-17T08:59:33.043Z,92.91
2022-08-17T09:00:33.026Z,92.81
2022-08-17T09:01:33.050Z,92.81
2022-08-17T09:02:34.821Z,92.51
2022-08-17T09:03:51.879Z,92.71
2022-08-17T09:04:49.952Z,93.05
2022-08-17T09:05:32.977Z,93.05
2022-08-17T09:06:39.158Z,93.55
2022-08-17T09:07:32.977Z,94.16
2022-08-17T09:08:32.933Z,94.46
2022-08-17T09:09:32.903Z,94.36
2022-08-17T09:10:32.903Z,94.51
2022-08-17T09:11:32.974Z,94.82
2022-08-17T09:12:32.885Z,94.12
2022-08-17T09:13:33.626Z,93.81
2022-08-17T09:14:45.113Z,94.21
2022-08-17T09:15:32.892Z,94.21
2022-08-17T09:16:32.821Z,94.62
2022-08-17T09:17:32.842Z,94.62
2022-08-17T09:19:01.089Z,94.71
2022-08-17T09:19:32.780Z,95.21
2022-08-17T09:20:32.758Z,95.42
2022-08-17T09:21:33.808Z,95.52
2022-08-17T09:22:32.740Z,95.62
2022-08-17T09:23:32.755Z,95.82
2022-08-17T09:24:32.720Z,96.02
2022-08-17T09:25:32.738Z,95.52
2022-08-17T09:26:32.690Z,94.82
2022-08-17T09:27:32.660Z,94.12
2022-08-17T09:28:32.681Z,94.42
2022-08-17T09:29:32.701Z,94.51
2022-08-17T09:30:32.623Z,94.57
2022-08-17T09:31:33.483Z,94.87
2022-08-17T09:32:32.603Z,94.17
2022-08-17T09:33:32.581Z,93.77
2022-08-17T09:34:33.367Z,93.37
2022-08-17T09:35:32.969Z,93.07
2022-08-17T09:36:32.550Z,93.37
2022-08-17T09:37:32.530Z,92.77
2022-08-17T09:38:32.857Z,92.97
2022-08-17T09:39:32.528Z,92.93
2022-08-17T09:40:32.545Z,92.22
2022-08-17T09:41:32.475Z,91.52
2022-08-17T09:42:32.490Z,91.72
2022-08-17T09:43:32.467Z,91.92
2022-08-17T09:44:32.443Z,91.92
2022-08-17T09:45:32.440Z,91.82
2022-08-17T09:46:32.446Z,91.82
2022-08-17T09:47:32.438Z,92.22
2022-08-17T09:48:32.388Z,92.02
2022-08-17T09:49:32.392Z,91.72
2022-08-17T09:50:57.382Z,92.08
2022-08-17T09:51:32.370Z,91.67
2022-08-17T09:52:32.329Z,91.28
2022-08-17T09:53:33.516Z,91.28
2022-08-17T09:54:39.131Z,90.48
2022-08-17T09:55:33.134Z,90.17
2022-08-17T09:56:32.281Z,90.17
2022-08-17T09:57:32.678Z,89.98
2022-08-17T09:58:32.317Z,90.48
2022-08-17T09:59:38.697Z,90.37
2022-08-17T10:00:32.252Z,90.63
2022-08-17T10:01:32.356Z,90.73
2022-08-17T10:02:32.208Z,90.63
2022-08-17T10:03:32.206Z,90.23
2022-08-17T10:04:32.194Z,90.09
2022-08-17T10:05:32.158Z,89.59
2022-08-17T10:06:32.155Z,89.55
2022-08-17T10:07:32.139Z,89.31
2022-08-17T10:08:32.125Z,88.90
2022-08-17T10:09:32.136Z,89.40
2022-08-17T10:10:32.408Z,85.91
2022-08-17T10:11:33.849Z,85.91
2022-08-17T10:12:32.057Z,86.51
2022-08-17T10:13:32.631Z,86.07
2022-08-17T10:14:38.027Z,86.87
2022-08-17T10:15:32.032Z,86.17
2022-08-17T10:16:32.023Z,86.07
2022-08-17T10:17:32.009Z,85.27
2022-08-17T10:18:33.308Z,85.07
2022-08-17T10:19:32.645Z,85.17
2022-08-17T10:20:31.982Z,85.47
2022-08-17T10:21:31.997Z,84.67
2022-08-17T10:22:34.478Z,83.97
2022-08-17T10:23:31.920Z,84.77
2022-08-17T10:24:31.973Z,84.27
2022-08-17T10:25:53.633Z,84.77
2022-08-17T10:26:43.053Z,84.87
2022-08-17T10:27:31.869Z,85.21
2022-08-17T10:28:31.846Z,85.37
2022-08-17T10:29:47.269Z,85.41
2022-08-17T10:30:31.858Z,85.11
2022-08-17T10:31:35.946Z,84.81
2022-08-17T10:32:31.841Z,84.71
2022-08-17T10:33:31.794Z,84.91
2022-08-17T10:34:34.194Z,85.11
2022-08-17T10:35:31.824Z,84.81
2022-08-17T10:36:31.757Z,85.11
2022-08-17T10:37:32.710Z,85.41
2022-08-17T10:38:31.729Z,84.85
2022-08-17T10:39:31.893Z,85.05
2022-08-17T10:40:31.743Z,85.75
2022-08-17T10:41:33.126Z,85.85
2022-08-17T10:42:32.681Z,85.75
2022-08-17T10:43:31.647Z,85.99
2022-08-17T10:44:38.974Z,86.19
2022-08-17T10:45:31.635Z,86.69
2022-08-17T10:46:31.904Z,85.99
2022-08-17T10:47:47.149Z,86.49
2022-08-17T10:48:32.231Z,86.69
2022-08-17T10:49:31.571Z,86.89
2022-08-17T10:50:31.571Z,87.15
2022-08-17T10:51:32.516Z,86.35
2022-08-17T10:52:31.556Z,86.05
2022-08-17T10:53:31.547Z,85.65
2022-08-17T10:54:31.534Z,85.85
2022-08-17T10:55:31.499Z,86.05
2022-08-17T10:56:31.503Z,86.25
2022-08-17T10:57:31.485Z,85.95
2022-08-17T10:58:31.477Z,85.45
2022-08-17T10:59:31.482Z,85.05
2022-08-17T11:00:31.423Z,85.21
2022-08-17T11:01:31.458Z,85.51
2022-08-17T11:02:31.411Z,84.77
2022-08-17T11:03:31.411Z,84.27
2022-08-17T11:04:31.417Z,83.87
2022-08-17T11:05:31.386Z,82.73
2022-08-17T11:06:31.334Z,82.43
2022-08-17T11:07:31.344Z,81.73
2022-08-17T11:08:31.321Z,81.93
2022-08-17T11:09:31.352Z,82.14
2022-08-17T11:10:31.302Z,81.54
2022-08-17T11:11:31.311Z,81.43
2022-08-17T11:12:31.281Z,82.20
2022-08-17T11:13:31.284Z,81.40
2022-08-17T11:14:31.250Z,81.00
2022-08-17T11:15:31.235Z,80.30
2022-08-17T11:16:31.266Z,80.40
2022-08-17T11:17:31.221Z,79.70
2022-08-17T11:18:31.214Z,80.00
2022-08-17T11:19:31.264Z,80.50
2022-08-17T11:20:31.174Z,79.10
2022-08-17T11:21:31.580Z,79.46
2022-08-17T11:22:33.553Z,78.86
2022-08-17T11:23:31.168Z,78.07
2022-08-17T11:24:31.132Z,78.27
2022-08-17T11:25:31.134Z,76.97
2022-08-17T11:26:31.142Z,76.77
2022-08-17T11:27:31.106Z,78.17
2022-08-17T11:28:31.068Z,77.27
2022-08-17T11:29:31.232Z,77.67
2022-08-17T11:30:31.042Z,78.17
2022-08-17T11:31:39.274Z,78.43
2022-08-17T11:32:31.048Z,77.23
2022-08-17T11:33:31.823Z,75.74
2022-08-17T11:34:30.974Z,76.47
2022-08-17T11:35:30.950Z,76.27
2022-08-17T11:36:30.962Z,76.37
2022-08-17T11:37:30.963Z,76.83
2022-08-17T11:38:30.963Z,76.43
2022-08-17T11:39:31.018Z,76.54
2022-08-17T11:40:30.907Z,75.04
2022-08-17T11:41:30.884Z,74.84
2022-08-17T11:42:30.929Z,75.14
2022-08-17T11:43:30.875Z,75.74
2022-08-17T11:44:30.871Z,75.84
2022-08-17T11:45:32.479Z,74.15
2022-08-17T11:46:30.825Z,73.55
2022-08-17T11:47:30.818Z,75.14
2022-08-17T11:48:31.104Z,73.55
2022-08-17T11:49:30.808Z,73.25
2022-08-17T11:50:30.776Z,72.25
2022-08-17T11:51:30.758Z,72.75
2022-08-17T11:52:30.754Z,73.44
2022-08-17T11:53:30.767Z,72.55
2022-08-17T11:54:33.878Z,73.65
2022-08-17T11:55:41.871Z,74.15
2022-08-17T11:56:30.710Z,74.74
2022-08-17T11:57:30.683Z,74.44
2022-08-17T11:58:30.705Z,74.74
2022-08-17T11:59:30.693Z,75.14
2022-08-17T12:00:30.659Z,75.04
2022-08-17T12:01:30.616Z,75.44
2022-08-17T12:02:31.475Z,76.14
2022-08-17T12:03:30.664Z,76.34
2022-08-17T12:04:30.702Z,76.47
2022-08-17T12:05:30.590Z,76.37
2022-08-17T12:06:31.115Z,76.77
2022-08-17T12:07:30.541Z,77.47
2022-08-17T12:08:30.539Z,77.97
2022-08-17T12:09:30.537Z,76.47
2022-08-17T12:10:30.523Z,75.78
2022-08-17T12:11:58.731Z,76.54
2022-08-17T12:12:30.488Z,77.23
2022-08-17T12:13:38.416Z,77.33
2022-08-17T12:14:51.712Z,76.24
2022-08-17T12:15:30.485Z,75.64
2022-08-17T12:16:30.438Z,76.34
2022-08-17T12:17:41.389Z,75.84
2022-08-17T12:18:30.398Z,75.34
2022-08-17T12:19:30.408Z,75.14
2022-08-17T12:20:30.382Z,74.94
2022-08-17T12:21:30.373Z,75.54
2022-08-17T12:22:30.348Z,75.64
2022-08-17T12:23:30.352Z,74.71
2022-08-17T12:24:30.340Z,74.71
2022-08-17T12:25:30.342Z,74.01
2022-08-17T12:26:30.339Z,74.30
2022-08-17T12:28:04.455Z,74.71
2022-08-17T12:28:30.263Z,74.11
2022-08-17T12:29:35.427Z,74.01
2022-08-17T12:30:30.292Z,74.97
2022-08-17T12:31:30.227Z,73.38
2022-08-17T12:32:30.242Z,72.28
2022-08-17T12:33:30.234Z,74.47
2022-08-17T12:34:30.209Z,72.94
2022-08-17T12:35:30.157Z,72.25
2022-08-17T12:36:30.162Z,72.31
2022-08-17T12:37:30.141Z,72.81
2022-08-17T12:38:32.436Z,71.88
2022-08-17T12:39:30.164Z,72.38
2022-08-17T12:40:30.128Z,73.07
2022-08-17T12:41:30.120Z,72.17
2022-08-17T12:42:30.091Z,70.78
2022-08-17T12:43:30.076Z,70.78
2022-08-17T12:44:30.073Z,70.95
2022-08-17T12:45:30.044Z,71.05
2022-08-17T12:46:30.026Z,70.75
2022-08-17T12:47:30.007Z,70.15
2022-08-17T12:48:30.102Z,70.42
2022-08-17T12:49:29.990Z,69.72
2022-08-17T12:50:30.337Z,70.02
2022-08-17T12:51:29.957Z,69.32
2022-08-17T12:52:29.950Z,68.83
2022-08-17T12:53:29.946Z,69.29